Alvada, Ohio
Current Conditions -  °F | °C
As of 12:53 PM on Friday 19 Dec 2014 (Local Time) from KFDY Reporting Station
Overcast Overcast  
Wind Chill: 24°   Ceiling: 2500
Heat Index: 31°   Visibility: 7mi
Dew Point: 25°   Wind: 7mph
Humidity: 79%   Direction: 270°W
Pressure: 30.25"   Gusts: NA
Location:  41.05°N, 83.4°W
Report Text: KFDY 191753Z AUTO 27006KT 7SM OVC025 M01/M04 A3025 RMK AO2 SLP248 T10061039 11006 21017 58008
Loading
Personal Weather Stations






























Interactive Weather Map New forecast layout! Learn more

10-Day Weather Forecast

Advertisements
Track Severe Weather on mobile